sensor_id;sensor_type;location;lat;lon;timestamp;temperature;humidity
8856;DHT22;4464;50.882;4.730;2023-03-16T00:02:15;6.60;99.90
8856;DHT22;4464;50.882;4.730;2023-03-16T00:04:40;6.70;99.90
8856;DHT22;4464;50.882;4.730;2023-03-16T00:07:10;6.70;99.90
8856;DHT22;4464;50.882;4.730;2023-03-16T00:09:39;6.70;99.90
8856;DHT22;4464;50.882;4.730;2023-03-16T00:12:24;6.70;99.90
8856;DHT22;4464;50.882;4.730;2023-03-16T00:14:51;6.80;99.90
8856;DHT22;4464;50.882;4.730;2023-03-16T00:17:20;6.80;99.90
8856;DHT22;4464;50.882;4.730;2023-03-16T00:19:51;6.70;99.90
8856;DHT22;4464;50.882;4.730;2023-03-16T00:22:20;6.70;99.90
8856;DHT22;4464;50.882;4.730;2023-03-16T00:24:46;6.70;99.90
8856;DHT22;4464;50.882;4.730;2023-03-16T00:27:13;6.70;99.90
8856;DHT22;4464;50.882;4.730;2023-03-16T00:29:49;6.80;99.90
8856;DHT22;4464;50.882;4.730;2023-03-16T00:32:25;6.80;99.90
8856;DHT22;4464;50.882;4.730;2023-03-16T00:34:51;6.80;99.90
8856;DHT22;4464;50.882;4.730;2023-03-16T00:37:18;6.80;99.90
8856;DHT22;4464;50.882;4.730;2023-03-16T00:39:45;6.80;99.90
8856;DHT22;4464;50.882;4.730;2023-03-16T00:42:13;6.80;99.90
8856;DHT22;4464;50.882;4.730;2023-03-16T00:44:41;6.80;99.90
8856;DHT22;4464;50.882;4.730;2023-03-16T00:47:08;6.80;99.90
8856;DHT22;4464;50.882;4.730;2023-03-16T00:49:39;6.80;99.90
8856;DHT22;4464;50.882;4.730;2023-03-16T00:52:11;6.80;99.90
8856;DHT22;4464;50.882;4.730;2023-03-16T00:54:43;6.80;99.90
8856;DHT22;4464;50.882;4.730;2023-03-16T00:57:14;6.80;99.90
8856;DHT22;4464;50.882;4.730;2023-03-16T00:59:41;6.90;99.90
8856;DHT22;4464;50.882;4.730;2023-03-16T01:02:08;6.80;99.90
8856;DHT22;4464;50.882;4.730;2023-03-16T01:04:37;6.80;99.90
8856;DHT22;4464;50.882;4.730;2023-03-16T01:07:07;6.80;99.90
8856;DHT22;4464;50.882;4.730;2023-03-16T01:09:36;6.90;99.90
8856;DHT22;4464;50.882;4.730;2023-03-16T01:12:15;6.80;99.90
8856;DHT22;4464;50.882;4.730;2023-03-16T01:14:42;6.90;99.90
8856;DHT22;4464;50.882;4.730;2023-03-16T01:17:10;6.90;99.90
8856;DHT22;4464;50.882;4.730;2023-03-16T01:19:41;6.90;99.90
8856;DHT22;4464;50.882;4.730;2023-03-16T01:22:08;6.90;99.90
8856;DHT22;4464;50.882;4.730;2023-03-16T01:24:34;6.90;99.90
8856;DHT22;4464;50.882;4.730;2023-03-16T01:27:01;7.00;99.90
8856;DHT22;4464;50.882;4.730;2023-03-16T01:29:26;7.00;99.90
8856;DHT22;4464;50.882;4.730;2023-03-16T01:31:52;7.00;99.90
8856;DHT22;4464;50.882;4.730;2023-03-16T01:34:20;6.90;99.90
8856;DHT22;4464;50.882;4.730;2023-03-16T01:36:47;6.90;99.90
8856;DHT22;4464;50.882;4.730;2023-03-16T01:39:13;7.00;99.90
8856;DHT22;4464;50.882;4.730;2023-03-16T01:41:43;7.00;99.90
8856;DHT22;4464;50.882;4.730;2023-03-16T01:44:26;7.00;99.90
8856;DHT22;4464;50.882;4.730;2023-03-16T01:46:59;7.00;99.90
8856;DHT22;4464;50.882;4.730;2023-03-16T01:49:33;7.00;99.90
8856;DHT22;4464;50.882;4.730;2023-03-16T01:52:07;7.00;99.90
8856;DHT22;4464;50.882;4.730;2023-03-16T01:54:45;7.00;99.90
8856;DHT22;4464;50.882;4.730;2023-03-16T01:57:21;7.00;99.90
8856;DHT22;4464;50.882;4.730;2023-03-16T01:59:54;7.00;99.90
8856;DHT22;4464;50.882;4.730;2023-03-16T02:02:28;7.00;99.90
8856;DHT22;4464;50.882;4.730;2023-03-16T02:04:57;7.00;99.90
8856;DHT22;4464;50.882;4.730;2023-03-16T02:07:27;7.00;99.90
8856;DHT22;4464;50.882;4.730;2023-03-16T02:10:00;6.90;99.90
8856;DHT22;4464;50.882;4.730;2023-03-16T02:12:27;7.00;99.90
8856;DHT22;4464;50.882;4.730;2023-03-16T02:14:53;7.00;99.90
8856;DHT22;4464;50.882;4.730;2023-03-16T02:17:28;7.00;99.90
8856;DHT22;4464;50.882;4.730;2023-03-16T02:22:48;7.00;99.90
8856;DHT22;4464;50.882;4.730;2023-03-16T02:25:17;6.90;99.90
8856;DHT22;4464;50.882;4.730;2023-03-16T02:30:45;6.80;99.90
8856;DHT22;4464;50.882;4.730;2023-03-16T02:33:15;6.80;99.90
8856;DHT22;4464;50.882;4.730;2023-03-16T02:35:41;6.80;99.90
8856;DHT22;4464;50.882;4.730;2023-03-16T02:38:07;6.80;99.90
8856;DHT22;4464;50.882;4.730;2023-03-16T02:40:34;6.80;99.90
8856;DHT22;4464;50.882;4.730;2023-03-16T02:43:07;6.70;99.90
8856;DHT22;4464;50.882;4.730;2023-03-16T02:45:57;6.70;99.90
8856;DHT22;4464;50.882;4.730;2023-03-16T02:48:27;6.80;99.90
8856;DHT22;4464;50.882;4.730;2023-03-16T02:50:57;6.80;99.90
8856;DHT22;4464;50.882;4.730;2023-03-16T02:53:22;6.80;99.90
8856;DHT22;4464;50.882;4.730;2023-03-16T02:55:48;6.80;99.90
8856;DHT22;4464;50.882;4.730;2023-03-16T02:58:17;6.80;99.90
8856;DHT22;4464;50.882;4.730;2023-03-16T03:00:44;6.70;99.90
8856;DHT22;4464;50.882;4.730;2023-03-16T03:03:12;6.70;99.90
8856;DHT22;4464;50.882;4.730;2023-03-16T03:05:38;6.70;99.90
8856;DHT22;4464;50.882;4.730;2023-03-16T03:08:05;6.70;99.90
8856;DHT22;4464;50.882;4.730;2023-03-16T03:10:31;6.70;99.90
8856;DHT22;4464;50.882;4.730;2023-03-16T03:12:57;6.70;99.90
8856;DHT22;4464;50.882;4.730;2023-03-16T03:15:25;6.70;99.90
8856;DHT22;4464;50.882;4.730;2023-03-16T03:17:51;6.70;99.90
8856;DHT22;4464;50.882;4.730;2023-03-16T03:20:19;6.70;99.90
8856;DHT22;4464;50.882;4.730;2023-03-16T03:22:50;6.70;99.90
8856;DHT22;4464;50.882;4.730;2023-03-16T03:25:18;6.70;99.90
8856;DHT22;4464;50.882;4.730;2023-03-16T03:27:48;6.70;99.90
8856;DHT22;4464;50.882;4.730;2023-03-16T03:30:20;6.70;99.90
8856;DHT22;4464;50.882;4.730;2023-03-16T03:32:46;6.60;99.90
8856;DHT22;4464;50.882;4.730;2023-03-16T03:35:15;6.50;99.90
8856;DHT22;4464;50.882;4.730;2023-03-16T03:37:43;6.50;99.90
8856;DHT22;4464;50.882;4.730;2023-03-16T03:40:14;6.50;99.90
8856;DHT22;4464;50.882;4.730;2023-03-16T03:42:41;6.50;99.90
8856;DHT22;4464;50.882;4.730;2023-03-16T03:45:10;6.40;99.90
8856;DHT22;4464;50.882;4.730;2023-03-16T03:47:37;6.40;99.90
8856;DHT22;4464;50.882;4.730;2023-03-16T03:50:10;6.50;99.90
8856;DHT22;4464;50.882;4.730;2023-03-16T03:52:36;6.40;99.90
8856;DHT22;4464;50.882;4.730;2023-03-16T03:55:01;6.40;99.90
8856;DHT22;4464;50.882;4.730;2023-03-16T03:57:29;6.50;99.90
8856;DHT22;4464;50.882;4.730;2023-03-16T03:59:55;6.40;99.90
8856;DHT22;4464;50.882;4.730;2023-03-16T04:02:21;6.40;99.90
8856;DHT22;4464;50.882;4.730;2023-03-16T04:04:51;6.40;99.90
8856;DHT22;4464;50.882;4.730;2023-03-16T04:07:17;6.40;99.90
8856;DHT22;4464;50.882;4.730;2023-03-16T04:09:42;6.50;99.90
8856;DHT22;4464;50.882;4.730;2023-03-16T04:12:10;6.40;99.90
8856;DHT22;4464;50.882;4.730;2023-03-16T04:14:37;6.50;99.90
8856;DHT22;4464;50.882;4.730;2023-03-16T04:17:03;6.50;99.90
8856;DHT22;4464;50.882;4.730;2023-03-16T04:19:31;6.50;99.90
8856;DHT22;4464;50.882;4.730;2023-03-16T04:21:57;6.50;99.90
8856;DHT22;4464;50.882;4.730;2023-03-16T04:24:22;6.50;99.90
8856;DHT22;4464;50.882;4.730;2023-03-16T04:26:50;6.50;99.90
8856;DHT22;4464;50.882;4.730;2023-03-16T04:29:19;6.50;99.90
8856;DHT22;4464;50.882;4.730;2023-03-16T04:31:47;6.50;99.90
8856;DHT22;4464;50.882;4.730;2023-03-16T04:34:15;6.50;99.90
8856;DHT22;4464;50.882;4.730;2023-03-16T04:36:41;6.50;99.90
8856;DHT22;4464;50.882;4.730;2023-03-16T04:39:07;6.50;99.90
8856;DHT22;4464;50.882;4.730;2023-03-16T04:41:34;6.50;99.90
8856;DHT22;4464;50.882;4.730;2023-03-16T04:43:59;6.50;99.90
8856;DHT22;4464;50.882;4.730;2023-03-16T04:46:25;6.50;99.90
8856;DHT22;4464;50.882;4.730;2023-03-16T04:48:52;6.60;99.90
8856;DHT22;4464;50.882;4.730;2023-03-16T04:51:18;6.50;99.90
8856;DHT22;4464;50.882;4.730;2023-03-16T04:53:46;6.60;99.90
8856;DHT22;4464;50.882;4.730;2023-03-16T04:56:11;6.60;99.90
8856;DHT22;4464;50.882;4.730;2023-03-16T04:58:48;6.60;99.90
8856;DHT22;4464;50.882;4.730;2023-03-16T05:01:17;6.70;99.90
8856;DHT22;4464;50.882;4.730;2023-03-16T05:03:43;6.70;99.90
8856;DHT22;4464;50.882;4.730;2023-03-16T05:06:09;6.70;99.90
8856;DHT22;4464;50.882;4.730;2023-03-16T05:08:36;6.60;99.90
8856;DHT22;4464;50.882;4.730;2023-03-16T05:11:02;6.60;99.90
8856;DHT22;4464;50.882;4.730;2023-03-16T05:13:28;6.50;99.90
8856;DHT22;4464;50.882;4.730;2023-03-16T05:15:54;6.60;99.90
8856;DHT22;4464;50.882;4.730;2023-03-16T05:18:21;6.60;99.90
8856;DHT22;4464;50.882;4.730;2023-03-16T05:20:54;6.60;99.90
8856;DHT22;4464;50.882;4.730;2023-03-16T05:23:23;6.60;99.90
8856;DHT22;4464;50.882;4.730;2023-03-16T05:25:53;6.50;99.90
8856;DHT22;4464;50.882;4.730;2023-03-16T05:28:19;6.60;99.90
8856;DHT22;4464;50.882;4.730;2023-03-16T05:30:44;6.60;99.90
8856;DHT22;4464;50.882;4.730;2023-03-16T05:33:15;6.60;99.90
8856;DHT22;4464;50.882;4.730;2023-03-16T05:35:40;6.70;99.90
8856;DHT22;4464;50.882;4.730;2023-03-16T05:38:07;6.60;99.90
8856;DHT22;4464;50.882;4.730;2023-03-16T05:40:36;6.60;99.90
8856;DHT22;4464;50.882;4.730;2023-03-16T05:43:05;6.60;99.90
8856;DHT22;4464;50.882;4.730;2023-03-16T05:45:32;6.60;99.90
8856;DHT22;4464;50.882;4.730;2023-03-16T05:48:00;6.70;99.90
8856;DHT22;4464;50.882;4.730;2023-03-16T05:50:26;6.70;99.90
8856;DHT22;4464;50.882;4.730;2023-03-16T05:52:52;6.70;99.90
8856;DHT22;4464;50.882;4.730;2023-03-16T05:55:21;6.70;99.90
8856;DHT22;4464;50.882;4.730;2023-03-16T05:57:46;6.70;99.90
8856;DHT22;4464;50.882;4.730;2023-03-16T06:00:13;6.70;99.90
8856;DHT22;4464;50.882;4.730;2023-03-16T06:02:44;6.70;99.90
8856;DHT22;4464;50.882;4.730;2023-03-16T06:05:14;6.70;99.90
8856;DHT22;4464;50.882;4.730;2023-03-16T06:07:45;6.70;99.90
8856;DHT22;4464;50.882;4.730;2023-03-16T06:10:11;6.70;99.90
8856;DHT22;4464;50.882;4.730;2023-03-16T06:12:40;6.70;99.90
8856;DHT22;4464;50.882;4.730;2023-03-16T06:15:07;6.80;99.90
8856;DHT22;4464;50.882;4.730;2023-03-16T06:17:34;6.80;99.90
8856;DHT22;4464;50.882;4.730;2023-03-16T06:20:00;6.80;99.90
8856;DHT22;4464;50.882;4.730;2023-03-16T06:22:26;6.80;99.90
8856;DHT22;4464;50.882;4.730;2023-03-16T06:24:54;6.90;99.90
8856;DHT22;4464;50.882;4.730;2023-03-16T06:27:22;6.90;99.90
8856;DHT22;4464;50.882;4.730;2023-03-16T06:29:53;6.90;99.90
8856;DHT22;4464;50.882;4.730;2023-03-16T06:32:19;6.90;99.90
8856;DHT22;4464;50.882;4.730;2023-03-16T06:34:46;7.00;99.90
8856;DHT22;4464;50.882;4.730;2023-03-16T06:37:12;7.00;99.90
8856;DHT22;4464;50.882;4.730;2023-03-16T06:39:38;7.00;99.90
8856;DHT22;4464;50.882;4.730;2023-03-16T06:42:06;7.00;99.90
8856;DHT22;4464;50.882;4.730;2023-03-16T06:44:32;7.00;99.90
8856;DHT22;4464;50.882;4.730;2023-03-16T06:46:58;7.00;99.90
8856;DHT22;4464;50.882;4.730;2023-03-16T06:49:24;7.00;99.90
8856;DHT22;4464;50.882;4.730;2023-03-16T06:51:51;7.10;99.90
8856;DHT22;4464;50.882;4.730;2023-03-16T06:54:17;7.10;99.90
8856;DHT22;4464;50.882;4.730;2023-03-16T06:56:43;7.10;99.90
8856;DHT22;4464;50.882;4.730;2023-03-16T06:59:08;7.10;99.90
8856;DHT22;4464;50.882;4.730;2023-03-16T07:01:34;7.10;99.90
8856;DHT22;4464;50.882;4.730;2023-03-16T07:04:00;7.10;99.90
8856;DHT22;4464;50.882;4.730;2023-03-16T07:06:26;7.10;99.90
8856;DHT22;4464;50.882;4.730;2023-03-16T07:08:54;7.20;99.90
8856;DHT22;4464;50.882;4.730;2023-03-16T07:11:19;7.20;99.90
8856;DHT22;4464;50.882;4.730;2023-03-16T07:13:45;7.30;99.90
8856;DHT22;4464;50.882;4.730;2023-03-16T07:16:11;7.30;99.90
8856;DHT22;4464;50.882;4.730;2023-03-16T07:18:37;7.30;99.90
8856;DHT22;4464;50.882;4.730;2023-03-16T07:21:06;7.30;99.90
8856;DHT22;4464;50.882;4.730;2023-03-16T07:23:32;7.30;99.90
8856;DHT22;4464;50.882;4.730;2023-03-16T07:25:58;7.30;99.90
8856;DHT22;4464;50.882;4.730;2023-03-16T07:28:23;7.40;99.90
8856;DHT22;4464;50.882;4.730;2023-03-16T07:30:49;7.50;99.90
8856;DHT22;4464;50.882;4.730;2023-03-16T07:33:18;7.60;99.90
8856;DHT22;4464;50.882;4.730;2023-03-16T07:35:47;7.60;99.90
8856;DHT22;4464;50.882;4.730;2023-03-16T07:38:13;7.60;99.90
8856;DHT22;4464;50.882;4.730;2023-03-16T07:40:39;7.70;99.90
8856;DHT22;4464;50.882;4.730;2023-03-16T07:43:07;7.80;99.90
8856;DHT22;4464;50.882;4.730;2023-03-16T07:45:33;7.80;99.90
8856;DHT22;4464;50.882;4.730;2023-03-16T07:47:58;7.80;99.90
8856;DHT22;4464;50.882;4.730;2023-03-16T07:50:27;7.80;99.90
8856;DHT22;4464;50.882;4.730;2023-03-16T07:52:53;7.70;99.90
8856;DHT22;4464;50.882;4.730;2023-03-16T07:55:18;7.80;99.90
8856;DHT22;4464;50.882;4.730;2023-03-16T07:57:45;7.90;99.90
8856;DHT22;4464;50.882;4.730;2023-03-16T08:00:13;8.10;99.90
8856;DHT22;4464;50.882;4.730;2023-03-16T08:02:39;8.60;99.90
8856;DHT22;4464;50.882;4.730;2023-03-16T08:05:05;9.30;99.90
8856;DHT22;4464;50.882;4.730;2023-03-16T08:07:31;9.50;99.90
8856;DHT22;4464;50.882;4.730;2023-03-16T08:09:57;9.80;99.90
8856;DHT22;4464;50.882;4.730;2023-03-16T08:12:22;10.00;99.90
8856;DHT22;4464;50.882;4.730;2023-03-16T08:14:48;10.20;99.90
8856;DHT22;4464;50.882;4.730;2023-03-16T08:17:14;10.20;99.90
8856;DHT22;4464;50.882;4.730;2023-03-16T08:19:42;10.00;99.90
8856;DHT22;4464;50.882;4.730;2023-03-16T08:22:10;10.10;99.90
8856;DHT22;4464;50.882;4.730;2023-03-16T08:24:38;10.00;99.90
8856;DHT22;4464;50.882;4.730;2023-03-16T08:27:04;9.80;99.90
8856;DHT22;4464;50.882;4.730;2023-03-16T08:29:30;9.90;99.90
8856;DHT22;4464;50.882;4.730;2023-03-16T08:31:58;9.80;99.90
8856;DHT22;4464;50.882;4.730;2023-03-16T08:34:26;9.80;99.90
8856;DHT22;4464;50.882;4.730;2023-03-16T08:36:54;9.70;99.90
8856;DHT22;4464;50.882;4.730;2023-03-16T08:39:20;10.10;99.90
8856;DHT22;4464;50.882;4.730;2023-03-16T08:41:46;10.60;99.90
8856;DHT22;4464;50.882;4.730;2023-03-16T08:44:15;10.90;99.90
8856;DHT22;4464;50.882;4.730;2023-03-16T08:46:41;11.30;99.90
8856;DHT22;4464;50.882;4.730;2023-03-16T08:49:07;11.70;99.90
8856;DHT22;4464;50.882;4.730;2023-03-16T08:51:33;11.70;99.90
8856;DHT22;4464;50.882;4.730;2023-03-16T08:54:01;11.80;99.90
8856;DHT22;4464;50.882;4.730;2023-03-16T08:56:27;11.90;99.90
8856;DHT22;4464;50.882;4.730;2023-03-16T08:58:55;12.60;99.40
8856;DHT22;4464;50.882;4.730;2023-03-16T09:01:22;13.20;98.60
8856;DHT22;4464;50.882;4.730;2023-03-16T09:03:49;13.30;97.70
8856;DHT22;4464;50.882;4.730;2023-03-16T09:06:16;13.60;97.60
8856;DHT22;4464;50.882;4.730;2023-03-16T09:08:44;13.60;96.90
8856;DHT22;4464;50.882;4.730;2023-03-16T09:11:14;13.90;96.70
8856;DHT22;4464;50.882;4.730;2023-03-16T09:13:44;14.00;96.60
8856;DHT22;4464;50.882;4.730;2023-03-16T09:16:11;13.90;95.90
8856;DHT22;4464;50.882;4.730;2023-03-16T09:18:41;13.60;95.90
8856;DHT22;4464;50.882;4.730;2023-03-16T09:21:08;13.30;96.40
8856;DHT22;4464;50.882;4.730;2023-03-16T09:23:35;13.10;96.70
8856;DHT22;4464;50.882;4.730;2023-03-16T09:26:08;12.90;96.90
8856;DHT22;4464;50.882;4.730;2023-03-16T09:28:35;12.20;96.70
8856;DHT22;4464;50.882;4.730;2023-03-16T09:31:03;12.10;97.10
8856;DHT22;4464;50.882;4.730;2023-03-16T09:33:30;11.90;97.30
8856;DHT22;4464;50.882;4.730;2023-03-16T09:35:59;11.80;98.00
8856;DHT22;4464;50.882;4.730;2023-03-16T09:38:29;12.00;97.80
8856;DHT22;4464;50.882;4.730;2023-03-16T09:41:08;12.00;96.90
8856;DHT22;4464;50.882;4.730;2023-03-16T09:46:43;11.80;96.70
8856;DHT22;4464;50.882;4.730;2023-03-16T09:49:12;11.60;96.60
8856;DHT22;4464;50.882;4.730;2023-03-16T09:51:43;11.50;96.60
8856;DHT22;4464;50.882;4.730;2023-03-16T09:54:31;11.50;96.80
8856;DHT22;4464;50.882;4.730;2023-03-16T09:57:04;11.30;96.80
8856;DHT22;4464;50.882;4.730;2023-03-16T09:59:35;11.60;96.50
8856;DHT22;4464;50.882;4.730;2023-03-16T10:05:11;11.90;96.90
8856;DHT22;4464;50.882;4.730;2023-03-16T10:10:34;12.40;96.30
8856;DHT22;4464;50.882;4.730;2023-03-16T10:13:15;12.80;95.80
8856;DHT22;4464;50.882;4.730;2023-03-16T10:15:44;13.40;95.20
8856;DHT22;4464;50.882;4.730;2023-03-16T10:18:21;13.90;94.50
8856;DHT22;4464;50.882;4.730;2023-03-16T10:20:50;14.10;93.80
8856;DHT22;4464;50.882;4.730;2023-03-16T10:23:20;14.70;93.80
8856;DHT22;4464;50.882;4.730;2023-03-16T10:25:54;14.80;92.90
8856;DHT22;4464;50.882;4.730;2023-03-16T10:28:34;15.30;92.40
8856;DHT22;4464;50.882;4.730;2023-03-16T10:31:02;15.80;92.00
8856;DHT22;4464;50.882;4.730;2023-03-16T10:33:34;15.70;91.30
8856;DHT22;4464;50.882;4.730;2023-03-16T10:38:55;17.00;91.10
8856;DHT22;4464;50.882;4.730;2023-03-16T10:41:32;17.60;89.10
8856;DHT22;4464;50.882;4.730;2023-03-16T10:44:02;16.90;86.20
8856;DHT22;4464;50.882;4.730;2023-03-16T10:46:45;16.70;85.70
8856;DHT22;4464;50.882;4.730;2023-03-16T10:49:27;16.80;84.60
8856;DHT22;4464;50.882;4.730;2023-03-16T10:51:59;17.00;84.40
8856;DHT22;4464;50.882;4.730;2023-03-16T10:54:35;17.20;83.60
8856;DHT22;4464;50.882;4.730;2023-03-16T10:57:28;17.10;81.10
8856;DHT22;4464;50.882;4.730;2023-03-16T10:59:59;17.40;81.50
8856;DHT22;4464;50.882;4.730;2023-03-16T11:02:34;16.70;83.20
8856;DHT22;4464;50.882;4.730;2023-03-16T11:05:26;16.80;83.40
8856;DHT22;4464;50.882;4.730;2023-03-16T11:08:05;16.70;82.40
8856;DHT22;4464;50.882;4.730;2023-03-16T11:10:36;16.60;82.20
8856;DHT22;4464;50.882;4.730;2023-03-16T11:15:47;16.70;82.90
8856;DHT22;4464;50.882;4.730;2023-03-16T11:18:33;16.70;84.30
8856;DHT22;4464;50.882;4.730;2023-03-16T11:21:11;17.20;83.20
8856;DHT22;4464;50.882;4.730;2023-03-16T11:23:40;17.20;82.00
8856;DHT22;4464;50.882;4.730;2023-03-16T11:26:17;16.80;82.00
8856;DHT22;4464;50.882;4.730;2023-03-16T11:28:52;16.40;81.70
8856;DHT22;4464;50.882;4.730;2023-03-16T11:34:46;16.80;81.90
8856;DHT22;4464;50.882;4.730;2023-03-16T11:37:31;16.50;82.20
8856;DHT22;4464;50.882;4.730;2023-03-16T11:48:59;17.50;80.20
8856;DHT22;4464;50.882;4.730;2023-03-16T12:11:10;16.00;82.70
8856;DHT22;4464;50.882;4.730;2023-03-16T12:16:46;18.00;79.00
8856;DHT22;4464;50.882;4.730;2023-03-16T12:19:44;18.80;78.20
8856;DHT22;4464;50.882;4.730;2023-03-16T12:22:22;19.20;76.70
8856;DHT22;4464;50.882;4.730;2023-03-16T12:24:51;20.60;75.10
8856;DHT22;4464;50.882;4.730;2023-03-16T12:27:25;21.10;73.00
8856;DHT22;4464;50.882;4.730;2023-03-16T12:32:47;21.80;70.20
8856;DHT22;4464;50.882;4.730;2023-03-16T12:40:35;22.00;69.00
8856;DHT22;4464;50.882;4.730;2023-03-16T12:48:44;21.20;66.40
8856;DHT22;4464;50.882;4.730;2023-03-16T12:51:12;20.90;67.90
8856;DHT22;4464;50.882;4.730;2023-03-16T12:53:44;21.30;66.70
8856;DHT22;4464;50.882;4.730;2023-03-16T12:56:21;21.60;66.00
8856;DHT22;4464;50.882;4.730;2023-03-16T12:58:56;22.10;64.00
8856;DHT22;4464;50.882;4.730;2023-03-16T13:01:44;21.10;62.50
8856;DHT22;4464;50.882;4.730;2023-03-16T13:04:16;20.60;62.10
8856;DHT22;4464;50.882;4.730;2023-03-16T13:06:51;20.00;62.40
8856;DHT22;4464;50.882;4.730;2023-03-16T13:09:30;19.20;62.30
8856;DHT22;4464;50.882;4.730;2023-03-16T13:12:02;19.00;63.30
8856;DHT22;4464;50.882;4.730;2023-03-16T13:14:38;19.20;62.20
8856;DHT22;4464;50.882;4.730;2023-03-16T13:17:09;20.00;61.40
8856;DHT22;4464;50.882;4.730;2023-03-16T13:20:04;20.40;62.50
8856;DHT22;4464;50.882;4.730;2023-03-16T13:25:18;20.40;61.90
8856;DHT22;4464;50.882;4.730;2023-03-16T13:27:51;20.40;60.60
8856;DHT22;4464;50.882;4.730;2023-03-16T13:30:28;20.60;59.00
8856;DHT22;4464;50.882;4.730;2023-03-16T13:32:59;21.00;59.20
8856;DHT22;4464;50.882;4.730;2023-03-16T13:35:27;21.10;60.00
8856;DHT22;4464;50.882;4.730;2023-03-16T13:37:53;21.50;58.80
8856;DHT22;4464;50.882;4.730;2023-03-16T13:42:50;22.10;57.20
8856;DHT22;4464;50.882;4.730;2023-03-16T13:45:29;21.20;57.70
8856;DHT22;4464;50.882;4.730;2023-03-16T13:47:59;21.30;57.90
8856;DHT22;4464;50.882;4.730;2023-03-16T13:50:26;20.90;57.80
8856;DHT22;4464;50.882;4.730;2023-03-16T13:53:00;20.10;58.60
8856;DHT22;4464;50.882;4.730;2023-03-16T13:55:37;20.40;58.50
8856;DHT22;4464;50.882;4.730;2023-03-16T13:58:12;20.80;58.00
8856;DHT22;4464;50.882;4.730;2023-03-16T14:00:43;21.60;58.00
8856;DHT22;4464;50.882;4.730;2023-03-16T14:03:20;22.00;57.70
8856;DHT22;4464;50.882;4.730;2023-03-16T14:05:47;22.10;57.20
8856;DHT22;4464;50.882;4.730;2023-03-16T14:08:22;22.40;58.40
8856;DHT22;4464;50.882;4.730;2023-03-16T14:10:48;22.20;57.60
8856;DHT22;4464;50.882;4.730;2023-03-16T14:13:22;21.90;56.90
8856;DHT22;4464;50.882;4.730;2023-03-16T14:15:51;21.80;56.90
8856;DHT22;4464;50.882;4.730;2023-03-16T14:18:31;21.50;56.90
8856;DHT22;4464;50.882;4.730;2023-03-16T14:21:06;22.00;56.60
8856;DHT22;4464;50.882;4.730;2023-03-16T14:23:38;21.60;56.20
8856;DHT22;4464;50.882;4.730;2023-03-16T14:26:09;22.50;56.30
8856;DHT22;4464;50.882;4.730;2023-03-16T14:28:38;23.50;56.10
8856;DHT22;4464;50.882;4.730;2023-03-16T14:31:11;23.20;55.30
8856;DHT22;4464;50.882;4.730;2023-03-16T14:33:41;23.80;54.90
8856;DHT22;4464;50.882;4.730;2023-03-16T14:38:40;22.80;54.20
8856;DHT22;4464;50.882;4.730;2023-03-16T14:41:25;22.70;53.80
8856;DHT22;4464;50.882;4.730;2023-03-16T14:43:59;22.50;54.50
8856;DHT22;4464;50.882;4.730;2023-03-16T14:46:36;21.20;55.30
8856;DHT22;4464;50.882;4.730;2023-03-16T14:51:56;18.90;57.10
8856;DHT22;4464;50.882;4.730;2023-03-16T14:54:28;18.50;58.30
8856;DHT22;4464;50.882;4.730;2023-03-16T14:57:01;18.40;58.40
8856;DHT22;4464;50.882;4.730;2023-03-16T14:59:28;18.70;58.10
8856;DHT22;4464;50.882;4.730;2023-03-16T15:01:54;19.30;59.10
8856;DHT22;4464;50.882;4.730;2023-03-16T15:04:33;19.90;58.70
8856;DHT22;4464;50.882;4.730;2023-03-16T15:07:01;21.10;57.50
8856;DHT22;4464;50.882;4.730;2023-03-16T15:09:39;21.60;58.10
8856;DHT22;4464;50.882;4.730;2023-03-16T15:12:13;21.90;57.60
8856;DHT22;4464;50.882;4.730;2023-03-16T15:14:39;23.00;56.90
8856;DHT22;4464;50.882;4.730;2023-03-16T15:17:23;23.60;56.10
8856;DHT22;4464;50.882;4.730;2023-03-16T15:19:49;23.50;55.10
8856;DHT22;4464;50.882;4.730;2023-03-16T15:22:31;23.10;54.80
8856;DHT22;4464;50.882;4.730;2023-03-16T15:24:57;22.40;55.30
8856;DHT22;4464;50.882;4.730;2023-03-16T15:27:33;22.40;56.10
8856;DHT22;4464;50.882;4.730;2023-03-16T15:30:01;22.80;56.30
8856;DHT22;4464;50.882;4.730;2023-03-16T15:32:27;22.60;56.50
8856;DHT22;4464;50.882;4.730;2023-03-16T15:34:55;22.20;57.00
8856;DHT22;4464;50.882;4.730;2023-03-16T15:37:22;21.30;58.40
8856;DHT22;4464;50.882;4.730;2023-03-16T15:39:51;21.60;58.40
8856;DHT22;4464;50.882;4.730;2023-03-16T15:42:18;20.70;59.70
8856;DHT22;4464;50.882;4.730;2023-03-16T15:44:45;20.50;59.20
8856;DHT22;4464;50.882;4.730;2023-03-16T15:47:11;20.50;59.10
8856;DHT22;4464;50.882;4.730;2023-03-16T15:49:40;20.70;59.90
8856;DHT22;4464;50.882;4.730;2023-03-16T15:52:09;20.70;60.70
8856;DHT22;4464;50.882;4.730;2023-03-16T15:54:43;20.60;60.30
8856;DHT22;4464;50.882;4.730;2023-03-16T15:57:09;20.60;61.60
8856;DHT22;4464;50.882;4.730;2023-03-16T15:59:40;20.40;61.50
8856;DHT22;4464;50.882;4.730;2023-03-16T16:02:28;19.60;62.60
8856;DHT22;4464;50.882;4.730;2023-03-16T16:04:55;19.30;63.50
8856;DHT22;4464;50.882;4.730;2023-03-16T16:07:22;18.90;64.10
8856;DHT22;4464;50.882;4.730;2023-03-16T16:09:50;18.70;64.70
8856;DHT22;4464;50.882;4.730;2023-03-16T16:12:16;18.30;65.90
8856;DHT22;4464;50.882;4.730;2023-03-16T16:14:43;18.40;65.90
8856;DHT22;4464;50.882;4.730;2023-03-16T16:17:11;18.60;66.50
8856;DHT22;4464;50.882;4.730;2023-03-16T16:19:40;18.40;66.90
8856;DHT22;4464;50.882;4.730;2023-03-16T16:22:10;18.20;66.70
8856;DHT22;4464;50.882;4.730;2023-03-16T16:24:38;18.10;66.70
8856;DHT22;4464;50.882;4.730;2023-03-16T16:27:05;18.30;68.60
8856;DHT22;4464;50.882;4.730;2023-03-16T16:29:33;18.50;68.20
8856;DHT22;4464;50.882;4.730;2023-03-16T16:31:59;19.10;66.90
8856;DHT22;4464;50.882;4.730;2023-03-16T16:34:25;19.10;67.70
8856;DHT22;4464;50.882;4.730;2023-03-16T16:36:56;19.40;67.60
8856;DHT22;4464;50.882;4.730;2023-03-16T16:39:22;19.20;66.80
8856;DHT22;4464;50.882;4.730;2023-03-16T16:41:51;18.70;67.00
8856;DHT22;4464;50.882;4.730;2023-03-16T16:44:26;18.50;68.90
8856;DHT22;4464;50.882;4.730;2023-03-16T16:46:58;18.00;68.90
8856;DHT22;4464;50.882;4.730;2023-03-16T16:49:28;17.30;70.40
8856;DHT22;4464;50.882;4.730;2023-03-16T16:51:55;16.90;71.10
8856;DHT22;4464;50.882;4.730;2023-03-16T16:54:27;16.60;71.40
8856;DHT22;4464;50.882;4.730;2023-03-16T16:56:54;16.30;72.70
8856;DHT22;4464;50.882;4.730;2023-03-16T16:59:32;16.10;73.40
8856;DHT22;4464;50.882;4.730;2023-03-16T17:01:59;15.90;73.40
8856;DHT22;4464;50.882;4.730;2023-03-16T17:04:27;15.70;73.90
8856;DHT22;4464;50.882;4.730;2023-03-16T17:06:55;15.50;74.30
8856;DHT22;4464;50.882;4.730;2023-03-16T17:09:26;15.40;74.40
8856;DHT22;4464;50.882;4.730;2023-03-16T17:11:53;15.20;75.10
8856;DHT22;4464;50.882;4.730;2023-03-16T17:14:23;15.10;74.60
8856;DHT22;4464;50.882;4.730;2023-03-16T17:16:52;15.00;75.10
8856;DHT22;4464;50.882;4.730;2023-03-16T17:21:48;14.70;76.50
8856;DHT22;4464;50.882;4.730;2023-03-16T17:24:15;14.70;77.50
8856;DHT22;4464;50.882;4.730;2023-03-16T17:26:46;14.50;77.30
8856;DHT22;4464;50.882;4.730;2023-03-16T17:29:26;14.40;78.60
8856;DHT22;4464;50.882;4.730;2023-03-16T17:31:53;14.40;78.50
8856;DHT22;4464;50.882;4.730;2023-03-16T17:34:25;14.20;78.60
8856;DHT22;4464;50.882;4.730;2023-03-16T17:36:53;14.10;79.00
8856;DHT22;4464;50.882;4.730;2023-03-16T17:39:24;14.00;79.20
8856;DHT22;4464;50.882;4.730;2023-03-16T17:44:23;13.80;80.30
8856;DHT22;4464;50.882;4.730;2023-03-16T17:46:56;13.80;80.90
8856;DHT22;4464;50.882;4.730;2023-03-16T17:49:22;13.70;81.90
8856;DHT22;4464;50.882;4.730;2023-03-16T17:51:53;13.60;82.30